Catania / Fontanarossa Airport LICC

Flugplatz Daten

Name: Catania / Fontanarossa Airport

Ident: LICC

Lat: 37,46680069

Long: 15,06639957

Platzhöhe: 39 ft

IataCode: CTA

City: Catania

Homepage: http://www.aeroporto.catania.it/

Metar

2021/08/03 07:50
LICC 030750Z 07010KT CAVOK 32/21 Q1015

Taf

2021/08/03 06:00
TAF LICC 030500Z 0306/0406 24010KT CAVOK
BECMG 0310/0311 08012KT
BECMG 0319/0321 VRB05KT
Gewünschte Webcam nicht vorhanden? Dann fügen Sie eine hinzu. Sie wird dann so schnell wie möglich freigeschaltet
Url: Title: